sensor_id;sensor_type;location;lat;lon;timestamp;temperature;humidity
51839;DHT22;37886;53.174;6.368;2022-12-07T00:02:17;3.60;99.90
51839;DHT22;37886;53.174;6.368;2022-12-07T00:04:42;3.60;99.90
51839;DHT22;37886;53.174;6.368;2022-12-07T00:07:15;3.60;99.90
51839;DHT22;37886;53.174;6.368;2022-12-07T00:09:40;3.70;99.90
51839;DHT22;37886;53.174;6.368;2022-12-07T00:12:10;3.70;99.90
51839;DHT22;37886;53.174;6.368;2022-12-07T00:15:21;3.70;99.90
51839;DHT22;37886;53.174;6.368;2022-12-07T00:17:37;3.80;99.90
51839;DHT22;37886;53.174;6.368;2022-12-07T00:20:05;3.80;99.90
51839;DHT22;37886;53.174;6.368;2022-12-07T00:22:49;3.80;99.90
51839;DHT22;37886;53.174;6.368;2022-12-07T00:25:17;4.00;99.90
51839;DHT22;37886;53.174;6.368;2022-12-07T00:30:39;4.20;99.90
51839;DHT22;37886;53.174;6.368;2022-12-07T00:33:25;4.40;99.90
51839;DHT22;37886;53.174;6.368;2022-12-07T00:35:56;4.40;99.90
51839;DHT22;37886;53.174;6.368;2022-12-07T00:38:21;4.30;99.90
51839;DHT22;37886;53.174;6.368;2022-12-07T00:40:57;4.20;99.90
51839;DHT22;37886;53.174;6.368;2022-12-07T00:43:28;4.20;99.90
51839;DHT22;37886;53.174;6.368;2022-12-07T00:45:54;4.20;99.90
51839;DHT22;37886;53.174;6.368;2022-12-07T00:48:20;4.20;99.90
51839;DHT22;37886;53.174;6.368;2022-12-07T00:50:52;4.20;99.90
51839;DHT22;37886;53.174;6.368;2022-12-07T00:53:18;4.20;99.90
51839;DHT22;37886;53.174;6.368;2022-12-07T00:55:48;4.20;99.90
51839;DHT22;37886;53.174;6.368;2022-12-07T00:58:14;4.20;99.90
51839;DHT22;37886;53.174;6.368;2022-12-07T01:00:42;4.20;99.90
51839;DHT22;37886;53.174;6.368;2022-12-07T01:03:10;4.20;99.90
51839;DHT22;37886;53.174;6.368;2022-12-07T01:05:36;4.20;99.90
51839;DHT22;37886;53.174;6.368;2022-12-07T01:08:02;4.20;99.90
51839;DHT22;37886;53.174;6.368;2022-12-07T01:10:28;4.20;99.90
51839;DHT22;37886;53.174;6.368;2022-12-07T01:12:56;4.20;99.90
51839;DHT22;37886;53.174;6.368;2022-12-07T01:15:22;4.10;99.90
51839;DHT22;37886;53.174;6.368;2022-12-07T01:17:48;4.10;99.90
51839;DHT22;37886;53.174;6.368;2022-12-07T01:20:14;4.10;99.90
51839;DHT22;37886;53.174;6.368;2022-12-07T01:22:42;4.10;99.90
51839;DHT22;37886;53.174;6.368;2022-12-07T01:25:10;4.10;99.90
51839;DHT22;37886;53.174;6.368;2022-12-07T01:27:37;4.10;99.90
51839;DHT22;37886;53.174;6.368;2022-12-07T01:30:04;4.10;99.90
51839;DHT22;37886;53.174;6.368;2022-12-07T01:32:30;4.10;99.90
51839;DHT22;37886;53.174;6.368;2022-12-07T01:34:56;4.10;99.90
51839;DHT22;37886;53.174;6.368;2022-12-07T01:37:22;4.10;99.90
51839;DHT22;37886;53.174;6.368;2022-12-07T01:39:51;4.10;99.90
51839;DHT22;37886;53.174;6.368;2022-12-07T01:42:18;4.10;99.90
51839;DHT22;37886;53.174;6.368;2022-12-07T01:47:50;4.00;99.90
51839;DHT22;37886;53.174;6.368;2022-12-07T01:50:19;3.90;99.90
51839;DHT22;37886;53.174;6.368;2022-12-07T01:52:48;4.00;99.90
51839;DHT22;37886;53.174;6.368;2022-12-07T01:55:15;3.90;99.90
51839;DHT22;37886;53.174;6.368;2022-12-07T01:57:45;3.90;99.90
51839;DHT22;37886;53.174;6.368;2022-12-07T02:00:12;4.00;99.90
51839;DHT22;37886;53.174;6.368;2022-12-07T02:02:53;3.90;99.90
51839;DHT22;37886;53.174;6.368;2022-12-07T02:05:20;3.90;99.90
51839;DHT22;37886;53.174;6.368;2022-12-07T02:07:47;3.90;99.90
51839;DHT22;37886;53.174;6.368;2022-12-07T02:10:22;3.90;99.90
51839;DHT22;37886;53.174;6.368;2022-12-07T02:13:01;4.00;99.90
51839;DHT22;37886;53.174;6.368;2022-12-07T02:21:20;4.10;99.90
51839;DHT22;37886;53.174;6.368;2022-12-07T02:30:17;4.20;99.90
51839;DHT22;37886;53.174;6.368;2022-12-07T02:32:57;4.30;99.90
51839;DHT22;37886;53.174;6.368;2022-12-07T02:38:18;4.20;99.90
51839;DHT22;37886;53.174;6.368;2022-12-07T02:43:39;4.20;99.90
51839;DHT22;37886;53.174;6.368;2022-12-07T02:46:10;4.10;99.90
51839;DHT22;37886;53.174;6.368;2022-12-07T02:48:38;4.20;99.90
51839;DHT22;37886;53.174;6.368;2022-12-07T02:51:05;4.20;99.90
51839;DHT22;37886;53.174;6.368;2022-12-07T02:53:35;4.10;99.90
51839;DHT22;37886;53.174;6.368;2022-12-07T03:07:37;3.90;99.90
51839;DHT22;37886;53.174;6.368;2022-12-07T03:13:28;3.90;99.90
51839;DHT22;37886;53.174;6.368;2022-12-07T03:16:04;3.80;99.90
51839;DHT22;37886;53.174;6.368;2022-12-07T03:18:55;3.80;99.90
51839;DHT22;37886;53.174;6.368;2022-12-07T03:21:30;3.80;99.90
51839;DHT22;37886;53.174;6.368;2022-12-07T03:23:59;3.80;99.90
51839;DHT22;37886;53.174;6.368;2022-12-07T03:26:35;3.80;99.90
51839;DHT22;37886;53.174;6.368;2022-12-07T03:29:11;3.70;99.90
51839;DHT22;37886;53.174;6.368;2022-12-07T03:31:44;3.60;99.90
51839;DHT22;37886;53.174;6.368;2022-12-07T03:34:47;3.50;99.90
51839;DHT22;37886;53.174;6.368;2022-12-07T03:37:12;3.60;99.90
51839;DHT22;37886;53.174;6.368;2022-12-07T03:42:36;3.60;99.90
51839;DHT22;37886;53.174;6.368;2022-12-07T03:45:02;3.60;99.90
51839;DHT22;37886;53.174;6.368;2022-12-07T03:47:45;3.60;99.90
51839;DHT22;37886;53.174;6.368;2022-12-07T03:50:32;3.50;99.90
51839;DHT22;37886;53.174;6.368;2022-12-07T03:53:20;3.50;99.90
51839;DHT22;37886;53.174;6.368;2022-12-07T03:55:51;3.50;99.90
51839;DHT22;37886;53.174;6.368;2022-12-07T03:58:23;3.50;99.90
51839;DHT22;37886;53.174;6.368;2022-12-07T04:00:50;3.50;99.90
51839;DHT22;37886;53.174;6.368;2022-12-07T04:03:17;3.50;99.90
51839;DHT22;37886;53.174;6.368;2022-12-07T04:05:43;3.60;99.90
51839;DHT22;37886;53.174;6.368;2022-12-07T04:08:10;3.70;99.90
51839;DHT22;37886;53.174;6.368;2022-12-07T04:10:35;3.70;99.90
51839;DHT22;37886;53.174;6.368;2022-12-07T04:13:01;3.80;99.90
51839;DHT22;37886;53.174;6.368;2022-12-07T04:15:27;3.80;99.90
51839;DHT22;37886;53.174;6.368;2022-12-07T04:17:53;3.90;99.90
51839;DHT22;37886;53.174;6.368;2022-12-07T04:20:20;3.80;99.90
51839;DHT22;37886;53.174;6.368;2022-12-07T04:22:46;3.70;99.90
51839;DHT22;37886;53.174;6.368;2022-12-07T04:25:12;3.70;99.90
51839;DHT22;37886;53.174;6.368;2022-12-07T04:27:43;3.60;99.90
51839;DHT22;37886;53.174;6.368;2022-12-07T04:30:09;3.60;99.90
51839;DHT22;37886;53.174;6.368;2022-12-07T04:32:35;3.60;99.90
51839;DHT22;37886;53.174;6.368;2022-12-07T04:35:02;3.70;99.90
51839;DHT22;37886;53.174;6.368;2022-12-07T04:37:27;3.70;99.90
51839;DHT22;37886;53.174;6.368;2022-12-07T04:39:53;3.70;99.90
51839;DHT22;37886;53.174;6.368;2022-12-07T04:42:19;3.60;99.90
51839;DHT22;37886;53.174;6.368;2022-12-07T04:44:44;3.60;99.90
51839;DHT22;37886;53.174;6.368;2022-12-07T04:47:13;3.50;99.90
51839;DHT22;37886;53.174;6.368;2022-12-07T04:49:41;3.30;99.90
51839;DHT22;37886;53.174;6.368;2022-12-07T04:52:10;3.30;99.90
51839;DHT22;37886;53.174;6.368;2022-12-07T04:54:35;3.20;99.90
51839;DHT22;37886;53.174;6.368;2022-12-07T04:57:01;3.00;99.90
51839;DHT22;37886;53.174;6.368;2022-12-07T04:59:27;2.90;99.90
51839;DHT22;37886;53.174;6.368;2022-12-07T05:01:53;2.90;99.90
51839;DHT22;37886;53.174;6.368;2022-12-07T05:04:18;2.80;99.90
51839;DHT22;37886;53.174;6.368;2022-12-07T05:06:46;2.80;99.90
51839;DHT22;37886;53.174;6.368;2022-12-07T05:09:12;2.70;99.90
51839;DHT22;37886;53.174;6.368;2022-12-07T05:11:38;2.50;99.90
51839;DHT22;37886;53.174;6.368;2022-12-07T05:16:34;2.20;99.90
51839;DHT22;37886;53.174;6.368;2022-12-07T05:19:00;2.20;99.90
51839;DHT22;37886;53.174;6.368;2022-12-07T05:21:25;2.20;99.90
51839;DHT22;37886;53.174;6.368;2022-12-07T05:23:51;2.30;99.90
51839;DHT22;37886;53.174;6.368;2022-12-07T05:26:17;2.20;99.90
51839;DHT22;37886;53.174;6.368;2022-12-07T05:28:43;2.20;99.90
51839;DHT22;37886;53.174;6.368;2022-12-07T05:31:09;2.40;99.90
51839;DHT22;37886;53.174;6.368;2022-12-07T05:33:35;2.50;99.90
51839;DHT22;37886;53.174;6.368;2022-12-07T05:36:00;2.50;99.90
51839;DHT22;37886;53.174;6.368;2022-12-07T05:38:31;2.60;99.90
51839;DHT22;37886;53.174;6.368;2022-12-07T05:41:01;2.60;99.90
51839;DHT22;37886;53.174;6.368;2022-12-07T05:43:30;2.70;99.90
51839;DHT22;37886;53.174;6.368;2022-12-07T05:45:56;2.80;99.90
51839;DHT22;37886;53.174;6.368;2022-12-07T05:48:22;2.80;99.90
51839;DHT22;37886;53.174;6.368;2022-12-07T05:50:49;3.00;99.90
51839;DHT22;37886;53.174;6.368;2022-12-07T05:53:16;3.10;99.90
51839;DHT22;37886;53.174;6.368;2022-12-07T05:55:41;3.20;99.90
51839;DHT22;37886;53.174;6.368;2022-12-07T05:58:07;3.20;99.90
51839;DHT22;37886;53.174;6.368;2022-12-07T06:00:57;3.10;99.90
51839;DHT22;37886;53.174;6.368;2022-12-07T06:03:22;3.10;99.90
51839;DHT22;37886;53.174;6.368;2022-12-07T06:05:48;3.00;99.90
51839;DHT22;37886;53.174;6.368;2022-12-07T06:08:14;3.00;99.90
51839;DHT22;37886;53.174;6.368;2022-12-07T06:10:41;3.00;99.90
51839;DHT22;37886;53.174;6.368;2022-12-07T06:13:08;3.00;99.90
51839;DHT22;37886;53.174;6.368;2022-12-07T06:15:37;3.00;99.90
51839;DHT22;37886;53.174;6.368;2022-12-07T06:18:03;3.10;99.90
51839;DHT22;37886;53.174;6.368;2022-12-07T06:20:29;3.30;99.90
51839;DHT22;37886;53.174;6.368;2022-12-07T06:22:54;3.40;99.90
51839;DHT22;37886;53.174;6.368;2022-12-07T06:25:20;3.40;99.90
51839;DHT22;37886;53.174;6.368;2022-12-07T06:27:48;3.40;99.90
51839;DHT22;37886;53.174;6.368;2022-12-07T06:30:14;3.30;99.90
51839;DHT22;37886;53.174;6.368;2022-12-07T06:32:40;3.30;99.90
51839;DHT22;37886;53.174;6.368;2022-12-07T06:35:05;3.20;99.90
51839;DHT22;37886;53.174;6.368;2022-12-07T06:37:37;3.10;99.90
51839;DHT22;37886;53.174;6.368;2022-12-07T06:40:02;3.00;99.90
51839;DHT22;37886;53.174;6.368;2022-12-07T06:42:28;3.00;99.90
51839;DHT22;37886;53.174;6.368;2022-12-07T06:44:54;3.00;99.90
51839;DHT22;37886;53.174;6.368;2022-12-07T06:47:19;3.00;99.90
51839;DHT22;37886;53.174;6.368;2022-12-07T06:49:45;3.00;99.90
51839;DHT22;37886;53.174;6.368;2022-12-07T06:52:11;2.80;99.90
51839;DHT22;37886;53.174;6.368;2022-12-07T06:54:36;2.80;99.90
51839;DHT22;37886;53.174;6.368;2022-12-07T06:57:02;2.80;99.90
51839;DHT22;37886;53.174;6.368;2022-12-07T06:59:30;2.80;99.90
51839;DHT22;37886;53.174;6.368;2022-12-07T07:01:56;2.80;99.90
51839;DHT22;37886;53.174;6.368;2022-12-07T07:04:22;2.80;99.90
51839;DHT22;37886;53.174;6.368;2022-12-07T07:06:48;2.80;99.90
51839;DHT22;37886;53.174;6.368;2022-12-07T07:09:13;2.80;99.90
51839;DHT22;37886;53.174;6.368;2022-12-07T07:11:39;2.70;99.90
51839;DHT22;37886;53.174;6.368;2022-12-07T07:14:05;2.70;99.90
51839;DHT22;37886;53.174;6.368;2022-12-07T07:16:30;2.70;99.90
51839;DHT22;37886;53.174;6.368;2022-12-07T07:18:56;2.80;99.90
51839;DHT22;37886;53.174;6.368;2022-12-07T07:21:22;2.80;99.90
51839;DHT22;37886;53.174;6.368;2022-12-07T07:23:49;2.80;99.90
51839;DHT22;37886;53.174;6.368;2022-12-07T07:26:16;2.80;99.90
51839;DHT22;37886;53.174;6.368;2022-12-07T07:28:42;2.70;99.90
51839;DHT22;37886;53.174;6.368;2022-12-07T07:31:08;2.60;99.90
51839;DHT22;37886;53.174;6.368;2022-12-07T07:33:34;2.60;99.90
51839;DHT22;37886;53.174;6.368;2022-12-07T07:35:59;2.40;99.90
51839;DHT22;37886;53.174;6.368;2022-12-07T07:38:25;2.30;99.90
51839;DHT22;37886;53.174;6.368;2022-12-07T07:40:51;2.30;99.90
51839;DHT22;37886;53.174;6.368;2022-12-07T07:43:16;2.30;99.90
51839;DHT22;37886;53.174;6.368;2022-12-07T07:45:42;2.10;99.90
51839;DHT22;37886;53.174;6.368;2022-12-07T07:48:08;1.90;99.90
51839;DHT22;37886;53.174;6.368;2022-12-07T07:50:33;1.90;99.90
51839;DHT22;37886;53.174;6.368;2022-12-07T07:52:59;1.80;99.90
51839;DHT22;37886;53.174;6.368;2022-12-07T07:55:25;1.80;99.90
51839;DHT22;37886;53.174;6.368;2022-12-07T07:57:50;2.00;99.90
51839;DHT22;37886;53.174;6.368;2022-12-07T08:00:17;2.10;99.90
51839;DHT22;37886;53.174;6.368;2022-12-07T08:02:43;2.20;99.90
51839;DHT22;37886;53.174;6.368;2022-12-07T08:05:10;2.30;99.90
51839;DHT22;37886;53.174;6.368;2022-12-07T08:07:35;2.60;99.90
51839;DHT22;37886;53.174;6.368;2022-12-07T08:10:01;2.60;99.90
51839;DHT22;37886;53.174;6.368;2022-12-07T08:12:29;2.60;99.90
51839;DHT22;37886;53.174;6.368;2022-12-07T08:14:55;2.60;99.90
51839;DHT22;37886;53.174;6.368;2022-12-07T08:17:21;2.70;99.90
51839;DHT22;37886;53.174;6.368;2022-12-07T08:19:46;2.70;99.90
51839;DHT22;37886;53.174;6.368;2022-12-07T08:22:12;2.70;99.90
51839;DHT22;37886;53.174;6.368;2022-12-07T08:24:38;2.70;99.90
51839;DHT22;37886;53.174;6.368;2022-12-07T08:27:03;2.70;99.90
51839;DHT22;37886;53.174;6.368;2022-12-07T08:29:29;2.70;99.90
51839;DHT22;37886;53.174;6.368;2022-12-07T08:31:55;2.70;99.90
51839;DHT22;37886;53.174;6.368;2022-12-07T08:34:21;2.70;99.90
51839;DHT22;37886;53.174;6.368;2022-12-07T08:36:49;2.80;99.90
51839;DHT22;37886;53.174;6.368;2022-12-07T08:39:14;2.90;99.90
51839;DHT22;37886;53.174;6.368;2022-12-07T08:41:40;2.90;99.90
51839;DHT22;37886;53.174;6.368;2022-12-07T08:44:06;2.80;99.90
51839;DHT22;37886;53.174;6.368;2022-12-07T08:46:58;2.90;99.90
51839;DHT22;37886;53.174;6.368;2022-12-07T08:49:31;3.00;99.90
51839;DHT22;37886;53.174;6.368;2022-12-07T08:51:58;3.10;99.90
51839;DHT22;37886;53.174;6.368;2022-12-07T08:54:24;3.30;99.90
51839;DHT22;37886;53.174;6.368;2022-12-07T08:56:50;3.40;99.90
51839;DHT22;37886;53.174;6.368;2022-12-07T08:59:17;3.60;99.90
51839;DHT22;37886;53.174;6.368;2022-12-07T09:01:44;3.70;99.90
51839;DHT22;37886;53.174;6.368;2022-12-07T09:04:12;3.90;99.90
51839;DHT22;37886;53.174;6.368;2022-12-07T09:06:42;4.10;99.90
51839;DHT22;37886;53.174;6.368;2022-12-07T09:09:11;4.20;99.90
51839;DHT22;37886;53.174;6.368;2022-12-07T09:11:45;4.30;99.90
51839;DHT22;37886;53.174;6.368;2022-12-07T09:14:12;4.30;99.90
51839;DHT22;37886;53.174;6.368;2022-12-07T09:16:38;4.30;99.90
51839;DHT22;37886;53.174;6.368;2022-12-07T09:19:04;4.30;99.90
51839;DHT22;37886;53.174;6.368;2022-12-07T09:21:30;4.30;99.90
51839;DHT22;37886;53.174;6.368;2022-12-07T09:23:56;4.30;99.90
51839;DHT22;37886;53.174;6.368;2022-12-07T09:26:22;4.30;99.90
51839;DHT22;37886;53.174;6.368;2022-12-07T09:28:48;4.30;99.90
51839;DHT22;37886;53.174;6.368;2022-12-07T09:31:14;4.30;99.90
51839;DHT22;37886;53.174;6.368;2022-12-07T09:33:40;4.30;99.90
51839;DHT22;37886;53.174;6.368;2022-12-07T09:36:07;4.30;99.90
51839;DHT22;37886;53.174;6.368;2022-12-07T09:38:33;4.10;99.90
51839;DHT22;37886;53.174;6.368;2022-12-07T09:41:07;4.20;99.90
51839;DHT22;37886;53.174;6.368;2022-12-07T09:43:35;4.10;99.90
51839;DHT22;37886;53.174;6.368;2022-12-07T09:46:03;4.10;99.90
51839;DHT22;37886;53.174;6.368;2022-12-07T09:48:34;4.10;99.90
51839;DHT22;37886;53.174;6.368;2022-12-07T09:51:16;4.10;99.90
51839;DHT22;37886;53.174;6.368;2022-12-07T09:53:43;4.00;99.90
51839;DHT22;37886;53.174;6.368;2022-12-07T09:56:13;4.00;99.90
51839;DHT22;37886;53.174;6.368;2022-12-07T09:58:40;4.10;99.90
51839;DHT22;37886;53.174;6.368;2022-12-07T10:01:16;4.10;99.90
51839;DHT22;37886;53.174;6.368;2022-12-07T10:03:51;4.20;99.90
51839;DHT22;37886;53.174;6.368;2022-12-07T10:06:17;4.40;99.90
51839;DHT22;37886;53.174;6.368;2022-12-07T10:08:43;4.50;99.90
51839;DHT22;37886;53.174;6.368;2022-12-07T10:11:10;4.60;99.90
51839;DHT22;37886;53.174;6.368;2022-12-07T10:13:41;4.70;99.90
51839;DHT22;37886;53.174;6.368;2022-12-07T10:16:35;4.90;99.90
51839;DHT22;37886;53.174;6.368;2022-12-07T10:19:32;5.10;99.90
51839;DHT22;37886;53.174;6.368;2022-12-07T10:22:15;5.10;99.90
51839;DHT22;37886;53.174;6.368;2022-12-07T10:24:43;5.10;99.90
51839;DHT22;37886;53.174;6.368;2022-12-07T10:27:19;5.20;99.90
51839;DHT22;37886;53.174;6.368;2022-12-07T10:30:07;5.30;99.90
51839;DHT22;37886;53.174;6.368;2022-12-07T10:32:36;5.40;99.90
51839;DHT22;37886;53.174;6.368;2022-12-07T10:35:29;5.50;99.90
51839;DHT22;37886;53.174;6.368;2022-12-07T10:37:57;5.50;99.90
51839;DHT22;37886;53.174;6.368;2022-12-07T10:43:18;5.70;99.90
51839;DHT22;37886;53.174;6.368;2022-12-07T10:54:50;6.00;99.90
51839;DHT22;37886;53.174;6.368;2022-12-07T10:57:32;5.90;99.90
51839;DHT22;37886;53.174;6.368;2022-12-07T11:00:21;5.80;99.90
51839;DHT22;37886;53.174;6.368;2022-12-07T11:08:44;5.70;99.90
51839;DHT22;37886;53.174;6.368;2022-12-07T11:11:41;5.70;99.90
51839;DHT22;37886;53.174;6.368;2022-12-07T11:14:26;5.70;99.90
51839;DHT22;37886;53.174;6.368;2022-12-07T11:17:34;5.70;99.90
51839;DHT22;37886;53.174;6.368;2022-12-07T11:23:40;5.80;99.90
51839;DHT22;37886;53.174;6.368;2022-12-07T11:26:55;5.80;99.90
51839;DHT22;37886;53.174;6.368;2022-12-07T11:37:35;6.00;99.90
51839;DHT22;37886;53.174;6.368;2022-12-07T11:40:15;6.10;99.90
51839;DHT22;37886;53.174;6.368;2022-12-07T11:42:58;6.30;99.90
51839;DHT22;37886;53.174;6.368;2022-12-07T11:45:34;6.40;99.90
51839;DHT22;37886;53.174;6.368;2022-12-07T11:48:33;6.40;99.90
51839;DHT22;37886;53.174;6.368;2022-12-07T11:51:11;6.50;99.90
51839;DHT22;37886;53.174;6.368;2022-12-07T11:53:46;6.70;99.90
51839;DHT22;37886;53.174;6.368;2022-12-07T11:56:16;6.80;99.90
51839;DHT22;37886;53.174;6.368;2022-12-07T12:01:36;7.10;99.90
51839;DHT22;37886;53.174;6.368;2022-12-07T12:06:42;7.10;99.90
51839;DHT22;37886;53.174;6.368;2022-12-07T12:14:50;6.80;99.90
51839;DHT22;37886;53.174;6.368;2022-12-07T12:23:05;6.40;99.90
51839;DHT22;37886;53.174;6.368;2022-12-07T12:28:40;6.30;99.90
51839;DHT22;37886;53.174;6.368;2022-12-07T12:31:15;6.20;99.90
51839;DHT22;37886;53.174;6.368;2022-12-07T12:34:04;6.10;99.90
51839;DHT22;37886;53.174;6.368;2022-12-07T12:36:43;5.70;99.90
51839;DHT22;37886;53.174;6.368;2022-12-07T12:39:24;5.40;99.90
51839;DHT22;37886;53.174;6.368;2022-12-07T12:42:42;5.20;99.90
51839;DHT22;37886;53.174;6.368;2022-12-07T12:45:29;5.00;99.90
51839;DHT22;37886;53.174;6.368;2022-12-07T12:54:35;4.70;99.90
51839;DHT22;37886;53.174;6.368;2022-12-07T12:57:31;4.70;99.90
51839;DHT22;37886;53.174;6.368;2022-12-07T13:00:20;4.80;99.90
51839;DHT22;37886;53.174;6.368;2022-12-07T13:02:58;4.90;99.90
51839;DHT22;37886;53.174;6.368;2022-12-07T13:09:46;4.90;99.90
51839;DHT22;37886;53.174;6.368;2022-12-07T13:18:42;4.90;99.90
51839;DHT22;37886;53.174;6.368;2022-12-07T13:29:41;4.70;99.90
51839;DHT22;37886;53.174;6.368;2022-12-07T13:32:30;4.70;99.90
51839;DHT22;37886;53.174;6.368;2022-12-07T13:35:33;4.70;99.90
51839;DHT22;37886;53.174;6.368;2022-12-07T13:38:34;4.70;99.90
51839;DHT22;37886;53.174;6.368;2022-12-07T13:41:24;4.60;99.90
51839;DHT22;37886;53.174;6.368;2022-12-07T13:44:34;4.60;99.90
51839;DHT22;37886;53.174;6.368;2022-12-07T13:57:27;4.30;99.90
51839;DHT22;37886;53.174;6.368;2022-12-07T13:59:56;4.30;99.90
51839;DHT22;37886;53.174;6.368;2022-12-07T14:02:30;4.30;99.90
51839;DHT22;37886;53.174;6.368;2022-12-07T14:05:22;4.30;99.90
51839;DHT22;37886;53.174;6.368;2022-12-07T14:10:40;4.20;99.90
51839;DHT22;37886;53.174;6.368;2022-12-07T14:16:42;4.20;99.90
51839;DHT22;37886;53.174;6.368;2022-12-07T14:22:38;4.20;99.90
51839;DHT22;37886;53.174;6.368;2022-12-07T14:27:48;4.20;99.90
51839;DHT22;37886;53.174;6.368;2022-12-07T14:30:30;4.10;99.90
51839;DHT22;37886;53.174;6.368;2022-12-07T14:36:17;4.10;99.90
51839;DHT22;37886;53.174;6.368;2022-12-07T14:38:43;4.00;99.90
51839;DHT22;37886;53.174;6.368;2022-12-07T14:41:29;4.00;99.90
51839;DHT22;37886;53.174;6.368;2022-12-07T14:44:26;4.00;99.90
51839;DHT22;37886;53.174;6.368;2022-12-07T14:46:55;4.00;99.90
51839;DHT22;37886;53.174;6.368;2022-12-07T14:49:23;3.90;99.90
51839;DHT22;37886;53.174;6.368;2022-12-07T14:52:24;3.70;99.90
51839;DHT22;37886;53.174;6.368;2022-12-07T14:55:38;3.70;99.90
51839;DHT22;37886;53.174;6.368;2022-12-07T15:04:51;3.40;99.90
51839;DHT22;37886;53.174;6.368;2022-12-07T15:07:21;3.40;99.90
51839;DHT22;37886;53.174;6.368;2022-12-07T15:10:09;3.30;99.90
51839;DHT22;37886;53.174;6.368;2022-12-07T15:13:27;3.30;99.90
51839;DHT22;37886;53.174;6.368;2022-12-07T15:23:42;3.10;99.90
51839;DHT22;37886;53.174;6.368;2022-12-07T15:26:12;3.10;99.90
51839;DHT22;37886;53.174;6.368;2022-12-07T15:28:55;3.00;99.90
51839;DHT22;37886;53.174;6.368;2022-12-07T15:34:40;3.00;99.90
51839;DHT22;37886;53.174;6.368;2022-12-07T15:37:06;3.00;99.90
51839;DHT22;37886;53.174;6.368;2022-12-07T15:39:50;3.00;99.90
51839;DHT22;37886;53.174;6.368;2022-12-07T15:42:54;2.90;99.90
51839;DHT22;37886;53.174;6.368;2022-12-07T15:45:29;2.90;99.90
51839;DHT22;37886;53.174;6.368;2022-12-07T15:48:13;2.90;99.90
51839;DHT22;37886;53.174;6.368;2022-12-07T15:50:41;2.90;99.90
51839;DHT22;37886;53.174;6.368;2022-12-07T15:53:07;2.90;99.90
51839;DHT22;37886;53.174;6.368;2022-12-07T15:55:32;2.90;99.90
51839;DHT22;37886;53.174;6.368;2022-12-07T15:58:01;3.00;99.90
51839;DHT22;37886;53.174;6.368;2022-12-07T16:00:26;2.90;99.90
51839;DHT22;37886;53.174;6.368;2022-12-07T16:02:52;3.00;99.90
51839;DHT22;37886;53.174;6.368;2022-12-07T16:05:18;3.00;99.90
51839;DHT22;37886;53.174;6.368;2022-12-07T16:07:43;3.00;99.90
51839;DHT22;37886;53.174;6.368;2022-12-07T16:10:11;3.10;99.90
51839;DHT22;37886;53.174;6.368;2022-12-07T16:12:37;3.20;99.90
51839;DHT22;37886;53.174;6.368;2022-12-07T16:15:03;3.20;99.90
51839;DHT22;37886;53.174;6.368;2022-12-07T16:17:29;3.20;99.90
51839;DHT22;37886;53.174;6.368;2022-12-07T16:19:57;3.20;99.90
51839;DHT22;37886;53.174;6.368;2022-12-07T16:22:23;3.30;99.90
51839;DHT22;37886;53.174;6.368;2022-12-07T16:24:49;3.30;99.90
51839;DHT22;37886;53.174;6.368;2022-12-07T16:27:15;3.40;99.90
51839;DHT22;37886;53.174;6.368;2022-12-07T16:29:40;3.40;99.90
51839;DHT22;37886;53.174;6.368;2022-12-07T16:32:06;3.30;99.90
51839;DHT22;37886;53.174;6.368;2022-12-07T16:34:32;3.40;99.90
51839;DHT22;37886;53.174;6.368;2022-12-07T16:36:57;3.30;99.90
51839;DHT22;37886;53.174;6.368;2022-12-07T16:39:23;3.30;99.90
51839;DHT22;37886;53.174;6.368;2022-12-07T16:41:50;3.30;99.90
51839;DHT22;37886;53.174;6.368;2022-12-07T16:44:16;3.20;99.90
51839;DHT22;37886;53.174;6.368;2022-12-07T16:46:42;3.20;99.90
51839;DHT22;37886;53.174;6.368;2022-12-07T16:49:12;3.20;99.90
51839;DHT22;37886;53.174;6.368;2022-12-07T16:51:38;3.10;99.90
51839;DHT22;37886;53.174;6.368;2022-12-07T16:54:04;3.10;99.90
51839;DHT22;37886;53.174;6.368;2022-12-07T16:56:30;3.00;99.90
51839;DHT22;37886;53.174;6.368;2022-12-07T16:58:59;3.00;99.90
51839;DHT22;37886;53.174;6.368;2022-12-07T17:01:27;3.00;99.90
51839;DHT22;37886;53.174;6.368;2022-12-07T17:03:53;2.90;99.90
51839;DHT22;37886;53.174;6.368;2022-12-07T17:06:24;2.90;99.90
51839;DHT22;37886;53.174;6.368;2022-12-07T17:09:02;2.90;99.90
51839;DHT22;37886;53.174;6.368;2022-12-07T17:14:12;2.90;99.90
51839;DHT22;37886;53.174;6.368;2022-12-07T17:17:03;2.90;99.90
51839;DHT22;37886;53.174;6.368;2022-12-07T17:19:43;2.90;99.90
51839;DHT22;37886;53.174;6.368;2022-12-07T17:22:12;2.90;99.90
51839;DHT22;37886;53.174;6.368;2022-12-07T17:24:44;2.90;99.90
51839;DHT22;37886;53.174;6.368;2022-12-07T17:27:10;2.90;99.90
51839;DHT22;37886;53.174;6.368;2022-12-07T17:29:36;3.00;99.90
51839;DHT22;37886;53.174;6.368;2022-12-07T17:32:02;3.00;99.90
51839;DHT22;37886;53.174;6.368;2022-12-07T17:34:27;3.00;99.90
51839;DHT22;37886;53.174;6.368;2022-12-07T17:36:53;3.00;99.90
51839;DHT22;37886;53.174;6.368;2022-12-07T17:39:20;3.10;99.90
51839;DHT22;37886;53.174;6.368;2022-12-07T17:41:46;3.10;99.90
51839;DHT22;37886;53.174;6.368;2022-12-07T17:44:30;3.10;99.90
51839;DHT22;37886;53.174;6.368;2022-12-07T17:46:59;3.10;99.90
51839;DHT22;37886;53.174;6.368;2022-12-07T17:49:27;3.10;99.90
51839;DHT22;37886;53.174;6.368;2022-12-07T17:51:53;3.10;99.90
51839;DHT22;37886;53.174;6.368;2022-12-07T17:54:37;3.00;99.90
51839;DHT22;37886;53.174;6.368;2022-12-07T17:57:03;3.00;99.90
51839;DHT22;37886;53.174;6.368;2022-12-07T17:59:29;3.00;99.90
51839;DHT22;37886;53.174;6.368;2022-12-07T18:01:55;2.90;99.90
51839;DHT22;37886;53.174;6.368;2022-12-07T18:04:21;2.90;99.90
51839;DHT22;37886;53.174;6.368;2022-12-07T18:06:46;2.90;99.90
51839;DHT22;37886;53.174;6.368;2022-12-07T18:09:15;2.80;99.90
51839;DHT22;37886;53.174;6.368;2022-12-07T18:11:40;2.80;99.90
51839;DHT22;37886;53.174;6.368;2022-12-07T18:14:06;2.70;99.90
51839;DHT22;37886;53.174;6.368;2022-12-07T18:16:32;2.70;99.90
51839;DHT22;37886;53.174;6.368;2022-12-07T18:19:04;2.70;99.90
51839;DHT22;37886;53.174;6.368;2022-12-07T18:21:30;2.60;99.90
51839;DHT22;37886;53.174;6.368;2022-12-07T18:23:58;2.60;99.90
51839;DHT22;37886;53.174;6.368;2022-12-07T18:26:30;2.60;99.90
51839;DHT22;37886;53.174;6.368;2022-12-07T18:28:58;2.50;99.90
51839;DHT22;37886;53.174;6.368;2022-12-07T18:31:24;2.50;99.90
51839;DHT22;37886;53.174;6.368;2022-12-07T18:33:50;2.50;99.90
51839;DHT22;37886;53.174;6.368;2022-12-07T18:36:21;2.40;99.90
51839;DHT22;37886;53.174;6.368;2022-12-07T18:38:47;2.50;99.90
51839;DHT22;37886;53.174;6.368;2022-12-07T18:41:14;2.40;99.90
51839;DHT22;37886;53.174;6.368;2022-12-07T18:43:40;2.40;99.90
51839;DHT22;37886;53.174;6.368;2022-12-07T18:46:13;2.50;99.90
51839;DHT22;37886;53.174;6.368;2022-12-07T18:48:39;2.50;99.90
51839;DHT22;37886;53.174;6.368;2022-12-07T18:51:07;2.50;99.90
51839;DHT22;37886;53.174;6.368;2022-12-07T18:53:37;2.50;99.90
51839;DHT22;37886;53.174;6.368;2022-12-07T18:56:15;2.50;99.90